createdAt,value
2023-04-17T00:01:17.708Z,9.35
2023-04-17T00:02:36.517Z,9.35
2023-04-17T00:03:44.816Z,9.33
2023-04-17T00:06:14.079Z,9.30
2023-04-17T00:07:36.424Z,9.30
2023-04-17T00:08:40.737Z,9.28
2023-04-17T00:11:08.787Z,9.30
2023-04-17T00:12:36.449Z,9.30
2023-04-17T00:13:36.442Z,9.27
2023-04-17T00:16:03.199Z,9.33
2023-04-17T00:17:36.514Z,9.33
2023-04-17T00:18:29.692Z,9.31
2023-04-17T00:20:56.545Z,9.15
2023-04-17T00:22:36.444Z,9.15
2023-04-17T00:23:22.929Z,9.32
2023-04-17T00:25:49.301Z,9.32
2023-04-17T00:27:36.431Z,9.32
2023-04-17T00:28:15.626Z,9.27
2023-04-17T00:30:41.993Z,9.32
2023-04-17T00:32:36.467Z,9.32
2023-04-17T00:33:08.380Z,9.08
2023-04-17T00:35:34.765Z,9.08
2023-04-17T00:37:36.441Z,9.08
2023-04-17T00:38:01.148Z,9.22
2023-04-17T00:40:27.630Z,9.36
2023-04-17T00:42:36.446Z,9.36
2023-04-17T00:42:59.908Z,9.32
2023-04-17T00:45:26.404Z,9.25
2023-04-17T00:47:36.499Z,9.25
2023-04-17T00:47:53.241Z,8.90
2023-04-17T00:50:19.916Z,9.23
2023-04-17T00:52:36.455Z,9.23
2023-04-17T00:52:47.306Z,9.18
2023-04-17T00:55:14.486Z,8.50
2023-04-17T00:57:36.440Z,8.50
2023-04-17T00:57:42.188Z,9.17
2023-04-17T01:00:10.212Z,9.04
2023-04-17T01:02:37.792Z,9.23
2023-04-17T01:02:38.283Z,9.23
2023-04-17T01:05:04.611Z,8.15
2023-04-17T01:07:31.105Z,9.11
2023-04-17T01:07:36.432Z,9.11
2023-04-17T01:09:57.584Z,8.62
2023-04-17T01:12:25.039Z,9.25
2023-04-17T01:12:36.510Z,9.25
2023-04-17T01:14:54.927Z,9.01
2023-04-17T01:17:22.065Z,9.04
2023-04-17T01:17:36.506Z,9.04
2023-04-17T01:19:49.674Z,9.15
2023-04-17T01:22:16.715Z,9.25
2023-04-17T01:22:36.471Z,9.25
2023-04-17T01:24:43.434Z,9.24
2023-04-17T01:27:09.923Z,9.13
2023-04-17T01:27:36.449Z,9.13
2023-04-17T01:29:36.332Z,9.10
2023-04-17T01:32:02.837Z,9.15
2023-04-17T01:32:36.462Z,9.15
2023-04-17T01:34:29.269Z,9.26
2023-04-17T01:36:55.686Z,9.14
2023-04-17T01:37:36.460Z,9.14
2023-04-17T01:39:22.119Z,9.30
2023-04-17T01:41:48.532Z,9.27
2023-04-17T01:42:36.481Z,9.27
2023-04-17T01:44:14.985Z,9.30
2023-04-17T01:46:41.451Z,9.31
2023-04-17T01:47:36.469Z,9.31
2023-04-17T01:49:07.896Z,9.32
2023-04-17T01:51:34.388Z,9.02
2023-04-17T01:52:36.479Z,9.02
2023-04-17T01:54:00.920Z,9.22
2023-04-17T01:56:27.342Z,9.32
2023-04-17T01:57:36.477Z,9.32
2023-04-17T01:58:54.495Z,9.36
2023-04-17T02:01:21.213Z,8.34
2023-04-17T02:02:36.680Z,8.34
2023-04-17T02:03:47.819Z,9.37
2023-04-17T02:06:15.727Z,9.34
2023-04-17T02:07:36.474Z,9.34
2023-04-17T02:08:42.545Z,9.33
2023-04-17T02:11:10.137Z,9.28
2023-04-17T02:12:36.487Z,9.28
2023-04-17T02:13:36.679Z,9.29
2023-04-17T02:16:03.240Z,9.27
2023-04-17T02:17:36.479Z,9.27
2023-04-17T02:18:29.743Z,9.24
2023-04-17T02:20:56.225Z,9.23
2023-04-17T02:22:36.459Z,9.23
2023-04-17T02:23:22.802Z,9.19
2023-04-17T02:25:49.246Z,9.19
2023-04-17T02:27:36.466Z,9.19
2023-04-17T02:28:15.832Z,9.21
2023-04-17T02:30:42.386Z,9.16
2023-04-17T02:32:36.489Z,9.16
2023-04-17T02:33:08.862Z,9.14
2023-04-17T02:35:35.382Z,9.13
2023-04-17T02:37:36.494Z,9.13
2023-04-17T02:38:02.041Z,8.95
2023-04-17T02:40:28.507Z,9.05
2023-04-17T02:42:36.505Z,9.05
2023-04-17T02:42:54.989Z,9.08
2023-04-17T02:45:21.640Z,9.07
2023-04-17T02:47:36.514Z,9.07
2023-04-17T02:47:48.693Z,9.05
2023-04-17T02:50:15.439Z,9.06
2023-04-17T02:52:36.501Z,9.06
2023-04-17T02:52:41.955Z,9.02
2023-04-17T02:55:09.737Z,9.00
2023-04-17T02:57:36.260Z,9.02
2023-04-17T02:57:36.497Z,9.02
2023-04-17T03:00:07.843Z,9.00
2023-04-17T03:02:34.579Z,8.98
2023-04-17T03:02:36.708Z,8.98
2023-04-17T03:05:02.117Z,8.94
2023-04-17T03:07:28.482Z,8.82
2023-04-17T03:07:36.478Z,8.82
2023-04-17T03:09:57.471Z,8.48
2023-04-17T03:12:24.069Z,8.87
2023-04-17T03:12:36.488Z,8.87
2023-04-17T03:14:50.705Z,8.88
2023-04-17T03:17:17.328Z,8.53
2023-04-17T03:17:36.503Z,8.53
2023-04-17T03:19:43.737Z,7.83
2023-04-17T03:22:12.712Z,7.78
2023-04-17T03:22:36.466Z,7.78
2023-04-17T03:24:41.169Z,8.18
2023-04-17T03:27:07.588Z,8.82
2023-04-17T03:27:36.462Z,8.82
2023-04-17T03:29:34.009Z,8.72
2023-04-17T03:32:00.424Z,8.66
2023-04-17T03:32:36.467Z,8.66
2023-04-17T03:34:27.074Z,8.58
2023-04-17T03:36:55.881Z,8.80
2023-04-17T03:37:36.537Z,8.80
2023-04-17T03:39:24.425Z,8.62
2023-04-17T03:41:50.861Z,8.54
2023-04-17T03:42:36.458Z,8.54
2023-04-17T03:44:18.534Z,8.77
2023-04-17T03:46:44.899Z,8.78
2023-04-17T03:47:36.548Z,8.78
2023-04-17T03:49:11.478Z,8.78
2023-04-17T03:51:38.094Z,8.81
2023-04-17T03:52:36.495Z,8.81
2023-04-17T03:54:04.517Z,8.78
2023-04-17T03:56:30.917Z,8.66
2023-04-17T03:57:36.474Z,8.66
2023-04-17T03:58:57.266Z,7.48
2023-04-17T04:01:28.091Z,8.77
2023-04-17T04:02:36.657Z,8.77
2023-04-17T04:03:55.458Z,8.30
2023-04-17T04:06:22.354Z,8.40
2023-04-17T04:07:36.492Z,8.40
2023-04-17T04:08:49.268Z,8.77
2023-04-17T04:11:16.534Z,8.76
2023-04-17T04:12:36.431Z,8.76
2023-04-17T04:13:43.008Z,8.72
2023-04-17T04:16:09.545Z,8.75
2023-04-17T04:17:36.502Z,8.75
2023-04-17T04:18:37.128Z,8.69
2023-04-17T04:21:03.730Z,8.76
2023-04-17T04:22:36.489Z,8.76
2023-04-17T04:23:30.665Z,8.77
2023-04-17T04:25:58.010Z,8.73
2023-04-17T04:27:36.505Z,8.73
2023-04-17T04:28:24.481Z,8.77
2023-04-17T04:30:52.954Z,8.74
2023-04-17T04:32:36.509Z,8.74
2023-04-17T04:33:20.616Z,8.70
2023-04-17T04:35:51.906Z,8.70
2023-04-17T04:37:36.489Z,8.70
2023-04-17T04:38:18.636Z,8.69
2023-04-17T04:40:49.840Z,8.69
2023-04-17T04:42:36.475Z,8.69
2023-04-17T04:43:16.371Z,8.65
2023-04-17T04:45:42.845Z,8.64
2023-04-17T04:47:36.530Z,8.64
2023-04-17T04:48:09.342Z,8.42
2023-04-17T04:50:35.897Z,8.61
2023-04-17T04:52:39.862Z,8.61
2023-04-17T04:53:02.337Z,8.57
2023-04-17T04:55:30.760Z,8.57
2023-04-17T04:57:36.529Z,8.57
2023-04-17T04:57:57.601Z,8.59
2023-04-17T05:00:24.767Z,8.59
2023-04-17T05:02:36.627Z,8.59
2023-04-17T05:02:51.253Z,8.23
2023-04-17T05:05:17.727Z,8.56
2023-04-17T05:07:36.489Z,8.56
2023-04-17T05:07:44.117Z,8.55
2023-04-17T05:10:10.520Z,8.57
2023-04-17T05:12:36.950Z,8.59
2023-04-17T05:12:37.505Z,8.59
2023-04-17T05:15:03.805Z,8.49
2023-04-17T05:17:30.313Z,8.31
2023-04-17T05:17:36.558Z,8.31
2023-04-17T05:19:56.650Z,8.26
2023-04-17T05:22:23.003Z,8.63
2023-04-17T05:22:36.465Z,8.63
2023-04-17T05:24:49.445Z,8.29
2023-04-17T05:27:16.503Z,8.63
2023-04-17T05:27:36.517Z,8.63
2023-04-17T05:29:42.816Z,8.64
2023-04-17T05:32:09.255Z,8.65
2023-04-17T05:32:36.519Z,8.65
2023-04-17T05:34:35.857Z,8.65
2023-04-17T05:37:03.227Z,8.57
2023-04-17T05:37:36.513Z,8.57
2023-04-17T05:39:29.594Z,8.70
2023-04-17T05:41:56.427Z,8.08
2023-04-17T05:42:36.550Z,8.08
2023-04-17T05:44:22.864Z,8.77
2023-04-17T05:46:49.310Z,8.74
2023-04-17T05:47:36.513Z,8.74
2023-04-17T05:49:15.773Z,8.66
2023-04-17T05:51:42.156Z,8.79
2023-04-17T05:52:38.689Z,8.79
2023-04-17T05:54:08.556Z,8.43
2023-04-17T05:56:34.905Z,8.80
2023-04-17T05:57:36.495Z,8.80
2023-04-17T05:59:01.227Z,8.35
2023-04-17T06:01:29.717Z,8.83
2023-04-17T06:02:36.644Z,8.83
2023-04-17T06:03:58.400Z,8.76
2023-04-17T06:06:24.939Z,8.87
2023-04-17T06:07:36.481Z,8.87
2023-04-17T06:08:52.472Z,8.88
2023-04-17T06:11:18.816Z,8.91
2023-04-17T06:12:36.489Z,8.91
2023-04-17T06:13:45.195Z,8.91
2023-04-17T06:16:11.633Z,8.91
2023-04-17T06:17:36.466Z,8.91
2023-04-17T06:18:38.312Z,8.94
2023-04-17T06:21:04.865Z,8.86
2023-04-17T06:22:36.525Z,8.86
2023-04-17T06:23:31.589Z,8.88
2023-04-17T06:25:57.925Z,8.95
2023-04-17T06:27:37.218Z,8.95
2023-04-17T06:28:24.436Z,9.03
2023-04-17T06:30:51.035Z,8.75
2023-04-17T06:32:36.509Z,8.75
2023-04-17T06:33:17.433Z,9.13
2023-04-17T06:35:43.925Z,9.20
2023-04-17T06:37:36.480Z,9.20
2023-04-17T06:38:10.383Z,9.21
2023-04-17T06:40:36.805Z,9.34
2023-04-17T06:42:36.476Z,9.34
2023-04-17T06:43:03.198Z,9.37
2023-04-17T06:45:29.591Z,9.21
2023-04-17T06:47:36.581Z,9.21
2023-04-17T06:47:55.981Z,9.46
2023-04-17T06:50:22.486Z,9.47
2023-04-17T06:52:36.484Z,9.47
2023-04-17T06:52:48.813Z,9.54
2023-04-17T06:55:15.375Z,8.23
2023-04-17T06:57:36.489Z,8.23
2023-04-17T06:57:41.748Z,9.29
2023-04-17T07:00:08.817Z,9.54
2023-04-17T07:02:35.445Z,9.44
2023-04-17T07:02:36.604Z,9.44
2023-04-17T07:05:01.889Z,9.49
2023-04-17T07:07:30.595Z,9.09
2023-04-17T07:07:36.509Z,9.09
2023-04-17T07:09:57.018Z,9.70
2023-04-17T07:12:23.386Z,9.77
2023-04-17T07:12:36.528Z,9.77
2023-04-17T07:14:50.289Z,9.76
2023-04-17T07:17:16.750Z,9.21
2023-04-17T07:17:36.598Z,9.21
2023-04-17T07:19:43.206Z,9.77
2023-04-17T07:22:10.116Z,9.75
2023-04-17T07:22:36.483Z,9.75
2023-04-17T07:24:36.643Z,9.76
2023-04-17T07:27:03.821Z,9.61
2023-04-17T07:27:36.465Z,9.61
2023-04-17T07:29:30.622Z,9.82
2023-04-17T07:31:57.014Z,9.77
2023-04-17T07:32:36.505Z,9.77
2023-04-17T07:34:25.155Z,9.77
2023-04-17T07:36:54.659Z,9.75
2023-04-17T07:37:36.481Z,9.75
2023-04-17T07:39:21.294Z,9.79
2023-04-17T07:41:49.000Z,9.19
2023-04-17T07:42:36.496Z,9.19
2023-04-17T07:44:15.932Z,9.89
2023-04-17T07:46:42.354Z,9.94
2023-04-17T07:47:36.550Z,9.94
2023-04-17T07:49:11.381Z,9.78
2023-04-17T07:51:41.012Z,9.85
2023-04-17T07:52:36.535Z,9.85
2023-04-17T07:54:07.688Z,9.60
2023-04-17T07:56:34.968Z,9.86
2023-04-17T07:57:36.497Z,9.86
2023-04-17T07:59:01.386Z,9.94
2023-04-17T08:01:27.925Z,10.29
2023-04-17T08:02:36.596Z,10.29
2023-04-17T08:03:55.501Z,10.71
2023-04-17T08:06:22.154Z,10.71
2023-04-17T08:07:36.484Z,10.71
2023-04-17T08:08:48.503Z,10.81
2023-04-17T08:11:14.986Z,10.89
2023-04-17T08:12:36.512Z,10.89
2023-04-17T08:13:41.436Z,10.69
2023-04-17T08:16:09.106Z,10.76
2023-04-17T08:17:36.556Z,10.76
2023-04-17T08:18:37.442Z,10.75
2023-04-17T08:21:04.354Z,11.00
2023-04-17T08:22:36.480Z,11.00
2023-04-17T08:23:30.917Z,10.88
2023-04-17T08:25:57.305Z,10.68
2023-04-17T08:27:36.563Z,10.68
2023-04-17T08:28:24.413Z,11.15
2023-04-17T08:30:51.292Z,11.04
2023-04-17T08:32:36.613Z,11.04
2023-04-17T08:33:18.358Z,11.14
2023-04-17T08:35:44.922Z,10.77
2023-04-17T08:37:36.623Z,10.77
2023-04-17T08:38:14.060Z,10.44
2023-04-17T08:40:42.907Z,11.05
2023-04-17T08:42:36.631Z,11.05
2023-04-17T08:43:19.587Z,10.91
2023-04-17T08:45:55.111Z,10.88
2023-04-17T08:47:36.658Z,10.88
2023-04-17T08:48:22.957Z,10.78
2023-04-17T08:50:51.553Z,10.97
2023-04-17T08:52:36.636Z,10.97
2023-04-17T08:53:20.971Z,10.86
2023-04-17T08:55:48.178Z,11.20
2023-04-17T08:57:36.692Z,11.20
2023-04-17T08:58:15.103Z,11.10
2023-04-17T09:00:43.512Z,11.23
2023-04-17T09:02:36.786Z,11.23
2023-04-17T09:03:14.062Z,10.26
2023-04-17T09:05:43.545Z,11.40
2023-04-17T09:07:36.745Z,11.40
2023-04-17T09:08:21.726Z,11.63
2023-04-17T09:10:53.046Z,11.59
2023-04-17T09:12:36.705Z,11.59
2023-04-17T09:13:25.348Z,11.62
2023-04-17T09:16:09.449Z,11.46
2023-04-17T09:17:36.795Z,11.46
2023-04-17T09:18:37.140Z,11.43
2023-04-17T09:21:05.592Z,11.18
2023-04-17T09:22:36.794Z,11.18
2023-04-17T09:23:46.593Z,10.51
2023-04-17T09:26:14.902Z,11.49
2023-04-17T09:27:36.811Z,11.49
2023-04-17T09:28:59.884Z,11.29
2023-04-17T09:31:28.248Z,12.30
2023-04-17T09:32:36.855Z,12.30
2023-04-17T09:34:01.956Z,12.62
2023-04-17T09:36:30.474Z,12.37
2023-04-17T09:37:36.842Z,12.37
2023-04-17T09:38:59.959Z,12.57
2023-04-17T09:41:27.422Z,12.31
2023-04-17T09:42:36.852Z,12.31
2023-04-17T09:43:55.364Z,12.20
2023-04-17T09:46:38.236Z,11.73
2023-04-17T09:47:36.869Z,11.73
2023-04-17T09:49:10.345Z,12.44
2023-04-17T09:51:37.384Z,12.52
2023-04-17T09:52:36.841Z,12.52
2023-04-17T09:54:05.572Z,12.63
2023-04-17T09:56:33.945Z,12.75
2023-04-17T09:57:36.888Z,12.75
2023-04-17T09:59:04.048Z,12.70
2023-04-17T10:01:36.904Z,13.00
2023-04-17T10:02:37.006Z,13.00
2023-04-17T10:04:04.710Z,12.85
2023-04-17T10:06:32.959Z,13.40
2023-04-17T10:07:36.839Z,13.40
2023-04-17T10:08:59.506Z,13.74
2023-04-17T10:11:31.417Z,13.84
2023-04-17T10:12:36.836Z,13.84
2023-04-17T10:14:18.125Z,13.94
2023-04-17T10:16:44.777Z,13.88
2023-04-17T10:17:36.838Z,13.88
2023-04-17T10:19:32.482Z,13.95
2023-04-17T10:22:19.886Z,13.69
2023-04-17T10:22:36.821Z,13.69
2023-04-17T10:24:48.699Z,13.67
2023-04-17T10:27:27.094Z,13.65
2023-04-17T10:27:36.825Z,13.65
2023-04-17T10:30:00.188Z,13.28
2023-04-17T10:32:29.061Z,13.75
2023-04-17T10:32:36.875Z,13.75
2023-04-17T10:35:06.525Z,14.21
2023-04-17T10:37:51.327Z,14.27
2023-04-17T10:37:51.474Z,14.27
2023-04-17T10:40:22.048Z,14.18
2023-04-17T10:42:36.841Z,14.18
2023-04-17T10:43:14.446Z,13.37
2023-04-17T10:45:56.845Z,13.49
2023-04-17T10:47:36.860Z,13.49
2023-04-17T10:48:38.883Z,13.55
2023-04-17T10:51:24.246Z,13.28
2023-04-17T10:52:36.839Z,13.28
2023-04-17T10:53:55.237Z,13.11
2023-04-17T10:56:46.076Z,13.30
2023-04-17T10:57:36.868Z,13.30
2023-04-17T10:59:17.389Z,13.70
2023-04-17T11:01:50.756Z,13.65
2023-04-17T11:02:36.855Z,13.65
2023-04-17T11:04:24.390Z,14.01
2023-04-17T11:06:52.627Z,14.31
2023-04-17T11:07:36.817Z,14.31
2023-04-17T11:09:22.140Z,14.03
2023-04-17T11:11:48.781Z,13.65
2023-04-17T11:12:36.827Z,13.65
2023-04-17T11:14:16.833Z,13.73
2023-04-17T11:16:45.102Z,13.86
2023-04-17T11:17:36.841Z,13.86
2023-04-17T11:19:16.870Z,13.43
2023-04-17T11:21:44.422Z,12.59
2023-04-17T11:22:36.824Z,12.59
2023-04-17T11:24:11.098Z,13.95
2023-04-17T11:26:47.519Z,14.04
2023-04-17T11:27:36.855Z,14.04
2023-04-17T11:29:21.933Z,14.12
2023-04-17T11:31:50.006Z,14.21
2023-04-17T11:32:36.889Z,14.21
2023-04-17T11:34:17.009Z,14.40
2023-04-17T11:36:49.922Z,13.84
2023-04-17T11:37:36.886Z,13.84
2023-04-17T11:39:17.192Z,13.67
2023-04-17T11:41:44.819Z,13.38
2023-04-17T11:42:36.849Z,13.38
2023-04-17T11:44:15.192Z,13.30
2023-04-17T11:46:41.649Z,14.13
2023-04-17T11:47:36.910Z,14.13
2023-04-17T11:49:08.734Z,14.53
2023-04-17T11:51:35.390Z,14.21
2023-04-17T11:52:36.850Z,14.21
2023-04-17T11:54:01.786Z,14.33
2023-04-17T11:56:31.164Z,14.41
2023-04-17T11:57:36.828Z,14.41
2023-04-17T11:58:59.091Z,14.40
2023-04-17T12:01:26.909Z,14.80
2023-04-17T12:02:37.036Z,14.80
2023-04-17T12:03:54.894Z,15.47
2023-04-17T12:06:24.784Z,15.19
2023-04-17T12:07:36.849Z,15.19
2023-04-17T12:08:53.690Z,15.30
2023-04-17T12:11:26.090Z,15.20
2023-04-17T12:12:36.849Z,15.20
2023-04-17T12:13:53.676Z,15.82
2023-04-17T12:16:20.175Z,15.43
2023-04-17T12:17:36.886Z,15.43
2023-04-17T12:18:46.712Z,15.32
2023-04-17T12:21:14.328Z,15.18
2023-04-17T12:22:36.838Z,15.18
2023-04-17T12:23:41.388Z,15.60
2023-04-17T12:26:08.542Z,15.36
2023-04-17T12:27:36.892Z,15.36
2023-04-17T12:28:35.528Z,15.35
2023-04-17T12:31:02.731Z,15.35
2023-04-17T12:32:36.868Z,15.35
2023-04-17T12:33:29.138Z,15.01
2023-04-17T12:35:55.842Z,15.15
2023-04-17T12:37:36.853Z,15.15
2023-04-17T12:38:23.355Z,15.18
2023-04-17T12:40:49.959Z,15.20
2023-04-17T12:42:46.508Z,15.20
2023-04-17T12:43:16.465Z,15.98
2023-04-17T12:45:45.446Z,15.64
2023-04-17T12:47:36.959Z,15.64
2023-04-17T12:48:13.338Z,14.54
2023-04-17T12:50:43.717Z,15.24
2023-04-17T12:52:36.857Z,15.24
2023-04-17T12:53:14.232Z,15.60
2023-04-17T12:55:43.423Z,15.66
2023-04-17T12:57:36.856Z,15.66
2023-04-17T12:58:11.876Z,15.62
2023-04-17T13:00:39.484Z,15.31
2023-04-17T13:02:37.087Z,15.31
2023-04-17T13:03:06.348Z,14.41
2023-04-17T13:05:32.913Z,15.42
2023-04-17T13:07:36.839Z,15.42
2023-04-17T13:07:59.522Z,15.40
2023-04-17T13:10:25.986Z,15.43
2023-04-17T13:12:36.860Z,15.43
2023-04-17T13:12:52.677Z,15.29
2023-04-17T13:15:21.918Z,14.92
2023-04-17T13:17:36.872Z,14.92
2023-04-17T13:17:48.428Z,14.95
2023-04-17T13:20:14.883Z,14.76
2023-04-17T13:22:36.853Z,14.76
2023-04-17T13:22:41.267Z,14.72
2023-04-17T13:25:08.069Z,15.54
2023-04-17T13:27:34.417Z,15.42
2023-04-17T13:27:36.830Z,15.42
2023-04-17T13:30:00.792Z,15.12
2023-04-17T13:32:27.224Z,15.32
2023-04-17T13:32:36.870Z,15.32
2023-04-17T13:34:53.777Z,15.06
2023-04-17T13:37:22.533Z,15.64
2023-04-17T13:37:36.851Z,15.64
2023-04-17T13:39:48.908Z,15.34
2023-04-17T13:42:16.877Z,16.04
2023-04-17T13:42:36.853Z,16.04
2023-04-17T13:44:43.366Z,15.88
2023-04-17T13:47:09.720Z,15.54
2023-04-17T13:47:36.893Z,15.54
2023-04-17T13:49:36.499Z,15.52
2023-04-17T13:52:03.656Z,15.64
2023-04-17T13:52:36.865Z,15.64
2023-04-17T13:54:30.006Z,15.57
2023-04-17T13:56:57.222Z,15.50
2023-04-17T13:57:36.875Z,15.50
2023-04-17T13:59:23.747Z,15.62
2023-04-17T14:01:50.290Z,15.93
2023-04-17T14:02:36.997Z,15.93
2023-04-17T14:04:16.837Z,14.97
2023-04-17T14:06:44.098Z,15.74
2023-04-17T14:07:36.847Z,15.74
2023-04-17T14:09:11.331Z,15.69
2023-04-17T14:11:37.982Z,15.51
2023-04-17T14:12:36.870Z,15.51
2023-04-17T14:14:04.373Z,14.82
2023-04-17T14:16:30.829Z,15.24
2023-04-17T14:17:36.916Z,15.24
2023-04-17T14:19:01.374Z,15.07
2023-04-17T14:21:33.062Z,15.09
2023-04-17T14:22:36.887Z,15.09
2023-04-17T14:23:59.400Z,15.02
2023-04-17T14:26:25.761Z,14.61
2023-04-17T14:27:36.847Z,14.61
2023-04-17T14:28:52.077Z,15.14
2023-04-17T14:31:18.434Z,15.42
2023-04-17T14:32:36.914Z,15.42
2023-04-17T14:33:44.770Z,15.53
2023-04-17T14:36:11.250Z,14.96
2023-04-17T14:37:36.871Z,14.96
2023-04-17T14:38:37.725Z,15.71
2023-04-17T14:41:04.176Z,15.83
2023-04-17T14:42:47.339Z,15.83
2023-04-17T14:43:30.590Z,15.42
2023-04-17T14:45:57.045Z,15.59
2023-04-17T14:47:36.898Z,15.59
2023-04-17T14:48:23.944Z,15.68
2023-04-17T14:50:50.722Z,15.99
2023-04-17T14:52:36.844Z,15.99
2023-04-17T14:53:17.608Z,15.93
2023-04-17T14:55:45.303Z,15.47
2023-04-17T14:57:36.868Z,15.47
2023-04-17T14:58:11.764Z,15.48
2023-04-17T15:00:39.608Z,15.83
2023-04-17T15:02:36.912Z,15.83
2023-04-17T15:03:07.181Z,15.69
2023-04-17T15:05:33.942Z,15.40
2023-04-17T15:07:36.851Z,15.40
2023-04-17T15:08:00.313Z,14.89
2023-04-17T15:10:28.654Z,14.81
2023-04-17T15:12:36.892Z,14.81
2023-04-17T15:13:00.138Z,15.24
2023-04-17T15:15:28.404Z,15.00
2023-04-17T15:17:36.888Z,15.00
2023-04-17T15:17:54.891Z,15.15
2023-04-17T15:20:24.905Z,15.05
2023-04-17T15:22:36.899Z,15.05
2023-04-17T15:23:00.193Z,15.04
2023-04-17T15:25:26.554Z,14.48
2023-04-17T15:27:36.884Z,14.48
2023-04-17T15:27:52.929Z,14.86
2023-04-17T15:30:19.340Z,14.96
2023-04-17T15:32:36.928Z,14.96
2023-04-17T15:32:45.800Z,14.96
2023-04-17T15:35:12.254Z,15.05
2023-04-17T15:37:36.876Z,15.05
2023-04-17T15:37:39.388Z,15.24
2023-04-17T15:40:07.728Z,14.96
2023-04-17T15:42:35.648Z,14.31
2023-04-17T15:42:36.891Z,14.31
2023-04-17T15:45:02.047Z,15.04
2023-04-17T15:47:28.462Z,15.04
2023-04-17T15:47:36.936Z,15.04
2023-04-17T15:49:54.830Z,14.82
2023-04-17T15:52:21.243Z,14.78
2023-04-17T15:52:36.859Z,14.78
2023-04-17T15:54:47.599Z,15.02
2023-04-17T15:57:13.942Z,14.79
2023-04-17T15:57:36.894Z,14.79
2023-04-17T15:59:40.455Z,14.72
2023-04-17T16:02:06.859Z,14.73
2023-04-17T16:02:36.989Z,14.73
2023-04-17T16:04:33.336Z,15.21
2023-04-17T16:06:59.795Z,14.49
2023-04-17T16:07:36.905Z,14.49
2023-04-17T16:09:26.193Z,14.65
2023-04-17T16:11:52.836Z,14.69
2023-04-17T16:12:36.890Z,14.69
2023-04-17T16:14:19.252Z,14.28
2023-04-17T16:16:45.666Z,14.70
2023-04-17T16:17:36.920Z,14.70
2023-04-17T16:19:12.150Z,14.71
2023-04-17T16:21:38.701Z,14.67
2023-04-17T16:22:36.886Z,14.67
2023-04-17T16:24:05.173Z,14.40
2023-04-17T16:26:31.627Z,14.53
2023-04-17T16:27:36.885Z,14.53
2023-04-17T16:28:58.419Z,14.52
2023-04-17T16:31:28.172Z,14.43
2023-04-17T16:32:36.917Z,14.43
2023-04-17T16:33:55.405Z,14.40
2023-04-17T16:36:22.073Z,14.41
2023-04-17T16:37:36.925Z,14.41
2023-04-17T16:38:48.463Z,14.41
2023-04-17T16:41:15.097Z,14.26
2023-04-17T16:42:36.870Z,14.26
2023-04-17T16:43:42.492Z,14.08
2023-04-17T16:46:20.720Z,13.71
2023-04-17T16:47:36.922Z,13.71
2023-04-17T16:48:51.199Z,14.11
2023-04-17T16:51:23.700Z,13.60
2023-04-17T16:52:36.901Z,13.60
2023-04-17T16:53:50.483Z,14.07
2023-04-17T16:56:16.852Z,14.17
2023-04-17T16:57:36.876Z,14.17
2023-04-17T16:58:43.245Z,14.05
2023-04-17T17:01:11.898Z,14.04
2023-04-17T17:02:37.005Z,14.04
2023-04-17T17:03:38.510Z,14.08
2023-04-17T17:06:07.003Z,14.08
2023-04-17T17:07:36.913Z,14.08
2023-04-17T17:08:33.474Z,14.08
2023-04-17T17:10:59.931Z,14.08
2023-04-17T17:12:36.876Z,14.08
2023-04-17T17:13:26.810Z,14.04
2023-04-17T17:15:53.401Z,14.00
2023-04-17T17:17:36.936Z,14.00
2023-04-17T17:18:19.746Z,13.90
2023-04-17T17:20:48.708Z,13.79
2023-04-17T17:22:36.886Z,13.79
2023-04-17T17:23:15.015Z,13.79
2023-04-17T17:25:41.302Z,12.88
2023-04-17T17:27:36.905Z,12.88
2023-04-17T17:28:07.729Z,13.30
2023-04-17T17:30:34.068Z,13.24
2023-04-17T17:32:36.905Z,13.24
2023-04-17T17:33:00.618Z,13.62
2023-04-17T17:35:27.047Z,13.33
2023-04-17T17:37:36.942Z,13.33
2023-04-17T17:37:53.483Z,13.41
2023-04-17T17:40:19.893Z,13.32
2023-04-17T17:42:36.874Z,13.32
2023-04-17T17:42:46.371Z,12.85
2023-04-17T17:45:12.777Z,13.26
2023-04-17T17:47:36.975Z,13.26
2023-04-17T17:47:39.943Z,13.15
2023-04-17T17:50:07.979Z,13.08
2023-04-17T17:52:34.313Z,12.93
2023-04-17T17:52:36.929Z,12.93
2023-04-17T17:55:00.735Z,11.81
2023-04-17T17:57:33.046Z,12.94
2023-04-17T17:57:48.839Z,12.94
2023-04-17T18:00:05.481Z,12.79
2023-04-17T18:02:32.659Z,12.59
2023-04-17T18:02:36.972Z,12.59
2023-04-17T18:04:59.128Z,12.60
2023-04-17T18:07:26.268Z,12.26
2023-04-17T18:07:36.907Z,12.26
2023-04-17T18:09:52.712Z,12.41
2023-04-17T18:12:19.146Z,12.29
2023-04-17T18:12:36.915Z,12.29
2023-04-17T18:14:45.576Z,12.25
2023-04-17T18:17:11.924Z,12.14
2023-04-17T18:17:36.983Z,12.14
2023-04-17T18:19:40.889Z,11.56
2023-04-17T18:22:08.593Z,11.82
2023-04-17T18:22:36.897Z,11.82
2023-04-17T18:24:35.962Z,11.64
2023-04-17T18:27:02.784Z,11.39
2023-04-17T18:27:36.905Z,11.39
2023-04-17T18:29:29.546Z,11.15
2023-04-17T18:31:55.979Z,11.69
2023-04-17T18:32:36.943Z,11.69
2023-04-17T18:34:25.450Z,11.30
2023-04-17T18:36:51.990Z,11.54
2023-04-17T18:37:36.894Z,11.54
2023-04-17T18:39:21.218Z,11.11
2023-04-17T18:41:47.675Z,10.88
2023-04-17T18:42:36.918Z,10.88
2023-04-17T18:44:14.642Z,10.32
2023-04-17T18:46:41.248Z,11.31
2023-04-17T18:47:36.951Z,11.31
2023-04-17T18:49:07.707Z,10.14
2023-04-17T18:51:34.028Z,11.13
2023-04-17T18:52:36.911Z,11.13
2023-04-17T18:54:00.478Z,11.03
2023-04-17T18:56:26.894Z,11.03
2023-04-17T18:57:36.910Z,11.03
2023-04-17T18:58:55.472Z,10.79
2023-04-17T19:01:21.842Z,11.00
2023-04-17T19:02:37.074Z,11.00
2023-04-17T19:03:48.252Z,10.97
2023-04-17T19:06:14.628Z,10.72
2023-04-17T19:07:36.957Z,10.72
2023-04-17T19:08:40.994Z,10.44
2023-04-17T19:11:07.371Z,10.88
2023-04-17T19:12:36.895Z,10.88
2023-04-17T19:13:33.782Z,10.81
2023-04-17T19:16:00.236Z,10.57
2023-04-17T19:17:36.924Z,10.57
2023-04-17T19:18:26.680Z,10.62
2023-04-17T19:20:52.991Z,9.62
2023-04-17T19:22:36.946Z,9.62
2023-04-17T19:23:19.394Z,10.33
2023-04-17T19:25:52.237Z,10.45
2023-04-17T19:27:36.928Z,10.45
2023-04-17T19:28:18.582Z,10.61
2023-04-17T19:30:45.105Z,10.11
2023-04-17T19:32:36.905Z,10.11
2023-04-17T19:33:11.535Z,10.31
2023-04-17T19:35:38.112Z,10.45
2023-04-17T19:37:36.921Z,10.45
2023-04-17T19:38:04.534Z,10.36
2023-04-17T19:40:30.907Z,10.48
2023-04-17T19:42:36.891Z,10.48
2023-04-17T19:43:01.171Z,10.35
2023-04-17T19:45:28.274Z,10.21
2023-04-17T19:47:36.946Z,10.21
2023-04-17T19:47:56.856Z,8.96
2023-04-17T19:50:26.947Z,10.12
2023-04-17T19:52:36.910Z,10.12
2023-04-17T19:52:54.546Z,9.76
2023-04-17T19:55:21.276Z,10.15
2023-04-17T19:57:36.947Z,10.15
2023-04-17T19:57:49.348Z,10.16
2023-04-17T20:00:16.684Z,10.13
2023-04-17T20:02:37.097Z,10.13
2023-04-17T20:02:43.555Z,9.67
2023-04-17T20:05:10.398Z,10.16
2023-04-17T20:07:36.994Z,9.75
2023-04-17T20:07:37.136Z,9.75
2023-04-17T20:10:03.935Z,10.23
2023-04-17T20:12:30.425Z,10.23
2023-04-17T20:12:36.917Z,10.23
2023-04-17T20:14:59.181Z,10.12
2023-04-17T20:17:25.634Z,10.21
2023-04-17T20:17:36.969Z,10.21
2023-04-17T20:19:52.038Z,9.98
2023-04-17T20:22:18.442Z,10.22
2023-04-17T20:22:36.919Z,10.22
2023-04-17T20:24:44.815Z,10.16
2023-04-17T20:27:11.229Z,10.13
2023-04-17T20:27:36.930Z,10.13
2023-04-17T20:29:38.060Z,9.49
2023-04-17T20:32:04.441Z,9.92
2023-04-17T20:32:36.991Z,9.92
2023-04-17T20:34:34.928Z,9.54
2023-04-17T20:37:01.870Z,9.80
2023-04-17T20:37:36.959Z,9.80
2023-04-17T20:39:29.015Z,9.73
2023-04-17T20:41:55.471Z,9.65
2023-04-17T20:42:36.937Z,9.65
2023-04-17T20:44:22.134Z,9.59
2023-04-17T20:46:48.651Z,9.53
2023-04-17T20:47:37.673Z,9.53
2023-04-17T20:49:14.971Z,9.49
2023-04-17T20:51:41.320Z,8.99
2023-04-17T20:52:36.926Z,8.99
2023-04-17T20:54:07.705Z,9.53
2023-04-17T20:56:34.534Z,9.67
2023-04-17T20:57:36.922Z,9.67
2023-04-17T20:59:03.059Z,9.45
2023-04-17T21:01:29.409Z,9.63
2023-04-17T21:02:37.022Z,9.63
2023-04-17T21:03:55.865Z,9.80
2023-04-17T21:06:22.800Z,9.85
2023-04-17T21:07:36.954Z,9.85
2023-04-17T21:08:49.131Z,9.86
2023-04-17T21:11:15.525Z,9.87
2023-04-17T21:12:37.000Z,9.87
2023-04-17T21:13:41.930Z,9.89
2023-04-17T21:16:11.071Z,9.86
2023-04-17T21:17:36.976Z,9.86
2023-04-17T21:18:37.665Z,9.86
2023-04-17T21:21:04.159Z,9.82
2023-04-17T21:22:36.920Z,9.82
2023-04-17T21:23:30.506Z,9.75
2023-04-17T21:25:56.807Z,9.66
2023-04-17T21:27:36.926Z,9.66
2023-04-17T21:28:23.233Z,9.35
2023-04-17T21:30:49.586Z,9.54
2023-04-17T21:32:37.012Z,9.54
2023-04-17T21:33:15.953Z,9.35